Time;durP1;ratioP1;P1;durP2;ratioP2;P2;SDS_P1;SDS_P2;PMS_P1;PMS_P2;Temp;Humidity;BMP_temperature;BMP_pressure;BME280_temperature;BME280_humidity;BME280_pressure;Samples;Min_cycle;Max_cycle;Signal;HPM_P1;HPM_P2
2023/09/29 00:01:26;;;;;;;7.07;6.40;;;;;;;;;;5012660;28;20199;-56
2023/09/29 00:03:53;;;;;;;7.17;6.47;;;;;;;;;;5012825;28;20281;-54
2023/09/29 00:06:19;;;;;;;7.93;6.60;;;;;;;;;;5012794;28;20197;-54
2023/09/29 00:08:45;;;;;;;6.90;6.30;;;;;;;;;;5012852;28;20191;-56
2023/09/29 00:11:14;;;;;;;7.13;6.43;;;;;;;;;;5012292;28;20202;-55
2023/09/29 00:13:40;;;;;;;7.03;6.43;;;;;;;;;;5012534;28;20213;-55
2023/09/29 00:16:06;;;;;;;10.17;7.47;;;;;;;;;;5012496;28;20205;-55
2023/09/29 00:18:33;;;;;;;7.50;6.80;;;;;;;;;;5012683;28;20198;-55
2023/09/29 00:20:59;;;;;;;7.47;6.67;;;;;;;;;;5012488;28;20607;-55
2023/09/29 00:23:25;;;;;;;8.03;7.17;;;;;;;;;;5011888;28;20220;-55
2023/09/29 00:25:51;;;;;;;9.80;7.20;;;;;;;;;;5012390;28;20569;-55
2023/09/29 00:28:18;;;;;;;10.53;9.23;;;;;;;;;;5008826;28;20252;-55
2023/09/29 00:30:44;;;;;;;10.13;8.80;;;;;;;;;;5012317;28;20705;-55
2023/09/29 00:33:10;;;;;;;10.00;9.00;;;;;;;;;;5012241;28;20194;-55
2023/09/29 00:35:37;;;;;;;13.37;12.00;;;;;;;;;;5012333;28;20222;-57
2023/09/29 00:38:03;;;;;;;12.83;11.10;;;;;;;;;;5012512;28;20651;-55
2023/09/29 00:40:30;;;;;;;11.40;10.27;;;;;;;;;;5012297;28;20197;-54
2023/09/29 00:43:00;;;;;;;14.57;13.27;;;;;;;;;;5011665;28;20309;-54
2023/09/29 00:45:28;;;;;;;13.07;11.67;;;;;;;;;;5012041;28;20209;-54
2023/09/29 00:47:57;;;;;;;12.13;11.10;;;;;;;;;;5012149;28;20210;-54
2023/09/29 00:50:23;;;;;;;12.07;10.97;;;;;;;;;;5011996;28;20206;-54
2023/09/29 00:52:51;;;;;;;12.30;11.10;;;;;;;;;;5012292;28;20197;-54
2023/09/29 00:55:17;;;;;;;12.10;10.87;;;;;;;;;;5012009;28;20268;-54
2023/09/29 00:57:45;;;;;;;12.00;10.83;;;;;;;;;;5012260;28;20202;-53
2023/09/29 01:00:29;;;;;;;12.73;11.63;;;;;;;;;;5011867;28;20401;-54
2023/09/29 01:02:57;;;;;;;11.60;10.40;;;;;;;;;;5011979;28;20363;-53
2023/09/29 01:05:23;;;;;;;11.00;10.10;;;;;;;;;;5011856;28;20280;-53
2023/09/29 01:07:51;;;;;;;12.60;11.40;;;;;;;;;;5011916;28;20222;-53
2023/09/29 01:10:17;;;;;;;13.40;11.93;;;;;;;;;;5011831;28;20221;-53
2023/09/29 01:12:44;;;;;;;13.40;12.10;;;;;;;;;;5011833;28;20616;-53
2023/09/29 01:15:14;;;;;;;11.97;10.80;;;;;;;;;;5011751;28;20506;-54
2023/09/29 01:17:41;;;;;;;14.23;12.70;;;;;;;;;;5011621;28;20206;-54
2023/09/29 01:20:16;;;;;;;12.20;11.00;;;;;;;;;;5011413;28;20203;-54
2023/09/29 01:22:46;;;;;;;12.07;10.93;;;;;;;;;;5011585;28;20249;-55
2023/09/29 01:25:13;;;;;;;14.80;13.30;;;;;;;;;;5011702;28;20198;-55
2023/09/29 01:27:39;;;;;;;12.90;11.83;;;;;;;;;;5011749;28;20198;-55
2023/09/29 01:30:06;;;;;;;12.63;11.53;;;;;;;;;;5011768;28;20740;-55
2023/09/29 01:32:32;;;;;;;13.57;12.37;;;;;;;;;;5011835;28;20221;-54
2023/09/29 01:34:58;;;;;;;13.40;12.20;;;;;;;;;;5011781;28;20577;-54
2023/09/29 01:37:25;;;;;;;12.40;11.30;;;;;;;;;;5011535;28;20202;-55
2023/09/29 01:39:51;;;;;;;13.90;12.60;;;;;;;;;;5000037;28;20650;-54
2023/09/29 01:42:19;;;;;;;16.60;14.97;;;;;;;;;;4991954;28;20231;-54
2023/09/29 01:44:46;;;;;;;16.43;14.83;;;;;;;;;;4992035;28;20299;-55
2023/09/29 01:47:12;;;;;;;14.33;12.33;;;;;;;;;;4991938;28;20596;-54
2023/09/29 01:49:38;;;;;;;15.57;14.27;;;;;;;;;;4992094;28;20656;-55
2023/09/29 01:52:04;;;;;;;16.47;15.07;;;;;;;;;;4992654;28;20246;-54
2023/09/29 01:54:31;;;;;;;15.57;14.17;;;;;;;;;;4995911;28;20226;-55
2023/09/29 01:56:57;;;;;;;17.67;15.97;;;;;;;;;;4995732;28;20191;-55
2023/09/29 01:59:24;;;;;;;18.53;16.63;;;;;;;;;;4995465;28;20593;-55
2023/09/29 02:01:50;;;;;;;16.87;15.17;;;;;;;;;;4995560;28;20205;-55
2023/09/29 02:04:16;;;;;;;18.33;16.50;;;;;;;;;;4995487;28;20302;-54
2023/09/29 02:06:42;;;;;;;16.63;15.00;;;;;;;;;;4995539;28;20207;-54
2023/09/29 02:09:10;;;;;;;14.50;13.20;;;;;;;;;;4995380;28;20195;-55
2023/09/29 02:11:38;;;;;;;15.33;14.00;;;;;;;;;;4995629;28;20286;-54
2023/09/29 02:14:05;;;;;;;15.13;13.73;;;;;;;;;;4995407;28;20285;-54
2023/09/29 02:16:32;;;;;;;14.30;12.77;;;;;;;;;;4995287;28;20203;-54
2023/09/29 02:18:58;;;;;;;13.70;12.53;;;;;;;;;;4995140;28;20571;-54
2023/09/29 02:21:27;;;;;;;14.33;13.07;;;;;;;;;;4995216;28;20291;-54
2023/09/29 02:23:55;;;;;;;14.70;13.07;;;;;;;;;;4995075;28;20223;-54
2023/09/29 02:26:22;;;;;;;16.10;14.60;;;;;;;;;;4995051;28;20704;-54
2023/09/29 02:28:48;;;;;;;14.70;13.30;;;;;;;;;;4995213;28;20254;-54
2023/09/29 02:31:15;;;;;;;13.73;12.40;;;;;;;;;;4995028;28;20221;-54
2023/09/29 02:33:42;;;;;;;13.43;12.23;;;;;;;;;;4995006;28;20245;-54
2023/09/29 02:36:08;;;;;;;12.97;11.70;;;;;;;;;;4994825;28;20285;-54
2023/09/29 02:38:36;;;;;;;12.67;11.57;;;;;;;;;;4995136;28;20231;-54
2023/09/29 02:41:02;;;;;;;13.20;11.90;;;;;;;;;;4995156;28;20212;-54
2023/09/29 02:43:32;;;;;;;12.90;11.57;;;;;;;;;;4994862;28;20275;-54
2023/09/29 02:45:58;;;;;;;15.03;13.57;;;;;;;;;;4994937;28;20203;-54
2023/09/29 02:48:24;;;;;;;15.33;13.93;;;;;;;;;;4994737;28;20198;-54
2023/09/29 02:50:51;;;;;;;20.57;17.70;;;;;;;;;;4994758;28;20625;-54
2023/09/29 02:53:17;;;;;;;17.00;15.30;;;;;;;;;;4994658;28;20200;-54
2023/09/29 02:55:46;;;;;;;17.27;15.67;;;;;;;;;;4994789;28;20534;-54
2023/09/29 02:58:13;;;;;;;17.27;15.63;;;;;;;;;;4994460;28;20226;-54
2023/09/29 03:00:39;;;;;;;15.63;14.23;;;;;;;;;;4994565;28;20198;-54
2023/09/29 03:03:06;;;;;;;16.57;15.03;;;;;;;;;;4994065;28;20225;-54
2023/09/29 03:05:35;;;;;;;18.33;16.47;;;;;;;;;;4993826;28;20669;-54
2023/09/29 03:08:03;;;;;;;15.93;14.37;;;;;;;;;;4994406;28;20660;-54
2023/09/29 03:10:29;;;;;;;16.53;15.13;;;;;;;;;;4994219;28;20719;-54
2023/09/29 03:12:58;;;;;;;18.63;17.10;;;;;;;;;;4993948;28;20199;-54
2023/09/29 03:15:24;;;;;;;16.97;15.47;;;;;;;;;;4993968;28;20670;-54
2023/09/29 03:17:52;;;;;;;18.03;16.13;;;;;;;;;;4994224;28;20615;-54
2023/09/29 03:20:19;;;;;;;19.00;17.03;;;;;;;;;;4994175;28;20206;-54
2023/09/29 03:22:45;;;;;;;19.03;17.13;;;;;;;;;;4994080;28;20222;-54
2023/09/29 03:25:16;;;;;;;19.03;17.00;;;;;;;;;;4994267;28;20697;-54
2023/09/29 03:27:43;;;;;;;18.87;17.27;;;;;;;;;;4994119;28;20633;-54
2023/09/29 03:30:10;;;;;;;19.47;17.47;;;;;;;;;;4994058;28;20198;-54
2023/09/29 03:32:36;;;;;;;19.13;17.30;;;;;;;;;;4994072;28;20221;-54
2023/09/29 03:35:05;;;;;;;18.90;17.03;;;;;;;;;;4993812;28;20637;-54
2023/09/29 03:37:35;;;;;;;18.33;16.73;;;;;;;;;;4993680;28;20229;-54
2023/09/29 03:40:06;;;;;;;18.90;17.07;;;;;;;;;;4993839;28;20564;-54
2023/09/29 03:42:34;;;;;;;18.33;16.57;;;;;;;;;;4993947;28;20225;-54
2023/09/29 03:45:05;;;;;;;17.60;15.90;;;;;;;;;;4993455;28;20285;-54
2023/09/29 03:47:32;;;;;;;17.70;15.90;;;;;;;;;;4993896;28;20210;-54
2023/09/29 03:49:58;;;;;;;16.17;14.57;;;;;;;;;;4993675;28;20207;-54
2023/09/29 03:52:25;;;;;;;16.77;15.23;;;;;;;;;;4993528;28;20253;-54
2023/09/29 03:54:51;;;;;;;15.43;14.03;;;;;;;;;;4993820;28;20206;-54
2023/09/29 03:57:17;;;;;;;15.27;13.77;;;;;;;;;;4993609;28;20281;-54
2023/09/29 03:59:44;;;;;;;14.60;13.27;;;;;;;;;;4993308;28;20298;-54
2023/09/29 04:02:11;;;;;;;15.50;13.90;;;;;;;;;;4993132;28;20239;-54
2023/09/29 04:04:37;;;;;;;14.43;12.90;;;;;;;;;;4993506;28;20206;-54
2023/09/29 04:07:04;;;;;;;14.73;13.33;;;;;;;;;;4993381;28;20251;-54
2023/09/29 04:09:30;;;;;;;13.53;12.23;;;;;;;;;;4993240;28;20238;-54
2023/09/29 04:11:56;;;;;;;11.93;10.80;;;;;;;;;;4993146;28;20244;-54
2023/09/29 04:14:22;;;;;;;15.17;11.80;;;;;;;;;;4992922;28;20294;-54
2023/09/29 04:16:50;;;;;;;13.33;12.07;;;;;;;;;;4992985;28;20197;-54
2023/09/29 04:19:16;;;;;;;11.40;10.37;;;;;;;;;;4992986;28;20207;-54
2023/09/29 04:21:42;;;;;;;12.60;11.40;;;;;;;;;;4993191;28;20198;-54
2023/09/29 04:24:08;;;;;;;13.77;11.67;;;;;;;;;;4992792;28;20314;-54
2023/09/29 04:26:35;;;;;;;13.40;12.10;;;;;;;;;;4992951;28;20661;-54
2023/09/29 04:29:01;;;;;;;12.63;11.33;;;;;;;;;;4992832;28;20736;-54
2023/09/29 04:31:27;;;;;;;11.90;10.60;;;;;;;;;;4992749;28;20584;-54
2023/09/29 04:33:54;;;;;;;10.40;9.40;;;;;;;;;;4992770;28;20195;-54
2023/09/29 04:36:20;;;;;;;10.47;9.57;;;;;;;;;;4992771;28;20219;-54
2023/09/29 04:38:46;;;;;;;9.70;8.73;;;;;;;;;;4992706;28;20281;-54
2023/09/29 04:41:14;;;;;;;8.87;7.97;;;;;;;;;;4992536;28;20223;-54
2023/09/29 04:43:40;;;;;;;10.53;8.67;;;;;;;;;;4992561;28;20310;-54
2023/09/29 04:46:06;;;;;;;9.50;8.53;;;;;;;;;;4992584;28;20627;-54
2023/09/29 04:48:32;;;;;;;9.77;8.87;;;;;;;;;;4992682;28;20768;-54
2023/09/29 04:51:00;;;;;;;10.43;9.27;;;;;;;;;;4992534;28;20277;-54
2023/09/29 04:53:26;;;;;;;9.33;8.43;;;;;;;;;;4992268;28;20611;-54
2023/09/29 04:55:52;;;;;;;9.90;9.03;;;;;;;;;;4992419;28;20197;-54
2023/09/29 04:58:18;;;;;;;9.67;8.67;;;;;;;;;;4992495;28;20218;-54
2023/09/29 05:00:44;;;;;;;9.83;8.20;;;;;;;;;;4992455;28;20260;-54
2023/09/29 05:03:10;;;;;;;10.40;7.97;;;;;;;;;;4992279;28;20262;-54
2023/09/29 05:05:37;;;;;;;8.77;7.87;;;;;;;;;;4992392;28;20208;-54
2023/09/29 05:08:04;;;;;;;8.30;7.10;;;;;;;;;;4992446;28;20226;-54
2023/09/29 05:10:30;;;;;;;8.03;7.13;;;;;;;;;;4992120;28;20205;-54
2023/09/29 05:12:56;;;;;;;8.10;7.30;;;;;;;;;;4991814;28;20251;-54
2023/09/29 05:15:22;;;;;;;8.67;7.77;;;;;;;;;;4992333;28;20227;-54
2023/09/29 05:17:48;;;;;;;9.27;6.70;;;;;;;;;;4992175;28;20318;-54
2023/09/29 05:20:14;;;;;;;10.47;7.60;;;;;;;;;;4991842;28;20209;-55
2023/09/29 05:22:40;;;;;;;7.80;7.03;;;;;;;;;;4991925;28;20625;-55
2023/09/29 05:25:08;;;;;;;8.07;7.27;;;;;;;;;;4992121;28;20211;-53
2023/09/29 05:27:35;;;;;;;8.60;7.70;;;;;;;;;;4993797;28;20198;-53
2023/09/29 05:30:01;;;;;;;7.67;6.97;;;;;;;;;;4996213;28;20203;-53
2023/09/29 05:32:27;;;;;;;7.23;6.57;;;;;;;;;;4995838;28;20507;-53
2023/09/29 05:34:53;;;;;;;7.63;6.77;;;;;;;;;;4995854;28;20195;-53
2023/09/29 05:37:19;;;;;;;7.30;6.60;;;;;;;;;;4995831;28;20306;-53
2023/09/29 05:39:45;;;;;;;6.77;6.17;;;;;;;;;;4995502;28;20261;-54
2023/09/29 05:42:12;;;;;;;6.67;5.57;;;;;;;;;;4995259;28;20737;-54
2023/09/29 05:44:38;;;;;;;8.53;6.47;;;;;;;;;;4995439;28;20282;-54
2023/09/29 05:47:04;;;;;;;7.57;6.77;;;;;;;;;;4995106;28;20654;-54
2023/09/29 05:49:32;;;;;;;6.77;6.17;;;;;;;;;;4994931;28;20203;-54
2023/09/29 05:51:58;;;;;;;9.00;7.13;;;;;;;;;;4995311;28;20207;-54
2023/09/29 05:54:24;;;;;;;10.00;7.60;;;;;;;;;;4995244;28;20210;-54
2023/09/29 05:56:50;;;;;;;7.63;6.77;;;;;;;;;;4995599;28;20237;-54
2023/09/29 05:59:17;;;;;;;7.47;6.70;;;;;;;;;;4995394;28;20228;-54
2023/09/29 06:01:43;;;;;;;8.03;6.63;;;;;;;;;;4995366;28;20653;-54
2023/09/29 06:04:09;;;;;;;7.67;6.93;;;;;;;;;;4994954;28;20749;-54
2023/09/29 06:06:35;;;;;;;8.23;6.90;;;;;;;;;;4995293;28;20226;-54
2023/09/29 06:09:01;;;;;;;7.90;7.20;;;;;;;;;;4995258;28;20204;-54
2023/09/29 06:11:27;;;;;;;7.90;6.93;;;;;;;;;;4995101;28;20202;-54
2023/09/29 06:13:53;;;;;;;7.40;6.13;;;;;;;;;;4995068;28;20198;-54
2023/09/29 06:16:21;;;;;;;10.80;6.47;;;;;;;;;;4995187;28;20570;-54
2023/09/29 06:18:47;;;;;;;7.30;6.20;;;;;;;;;;4995333;28;20213;-54
2023/09/29 06:21:13;;;;;;;7.23;6.53;;;;;;;;;;4994906;28;20269;-54
2023/09/29 06:23:39;;;;;;;7.53;6.53;;;;;;;;;;4995008;28;20228;-54
2023/09/29 06:26:05;;;;;;;6.97;5.83;;;;;;;;;;4994998;28;20258;-54
2023/09/29 06:28:31;;;;;;;6.10;5.50;;;;;;;;;;4994811;28;20198;-54
2023/09/29 06:30:57;;;;;;;7.70;5.60;;;;;;;;;;4994961;28;20222;-54
2023/09/29 06:33:25;;;;;;;5.80;5.30;;;;;;;;;;4994912;28;20613;-54
2023/09/29 06:35:52;;;;;;;6.90;5.70;;;;;;;;;;4994791;28;20415;-54
2023/09/29 06:38:18;;;;;;;6.10;5.50;;;;;;;;;;4994417;28;20242;-54
2023/09/29 06:40:44;;;;;;;6.53;5.83;;;;;;;;;;4994621;28;20206;-54
2023/09/29 06:43:10;;;;;;;6.27;5.67;;;;;;;;;;4994416;28;20227;-54
2023/09/29 06:45:36;;;;;;;6.07;5.33;;;;;;;;;;4998666;28;20228;-54
2023/09/29 06:48:03;;;;;;;6.53;5.20;;;;;;;;;;5014326;28;20198;-54
2023/09/29 06:50:32;;;;;;;8.57;6.23;;;;;;;;;;5013957;28;20291;-55
2023/09/29 06:52:58;;;;;;;6.17;5.07;;;;;;;;;;5013865;28;20284;-54
2023/09/29 06:55:24;;;;;;;7.30;5.10;;;;;;;;;;5013949;28;20277;-54
2023/09/29 06:57:50;;;;;;;6.37;5.70;;;;;;;;;;5013901;28;20557;-54
2023/09/29 07:00:17;;;;;;;5.77;5.17;;;;;;;;;;5013813;28;20203;-54
2023/09/29 07:02:43;;;;;;;7.03;5.50;;;;;;;;;;5013810;28;20637;-54
2023/09/29 07:05:10;;;;;;;6.00;5.23;;;;;;;;;;5013726;28;20596;-54
2023/09/29 07:07:37;;;;;;;8.53;5.20;;;;;;;;;;5013713;28;20296;-54
2023/09/29 07:10:03;;;;;;;6.00;5.20;;;;;;;;;;5014017;28;20243;-54
2023/09/29 07:12:29;;;;;;;5.67;5.10;;;;;;;;;;5013499;28;20220;-54
2023/09/29 07:14:55;;;;;;;5.67;4.83;;;;;;;;;;5013600;28;20520;-54
2023/09/29 07:17:22;;;;;;;6.90;5.37;;;;;;;;;;5013658;28;20206;-54
2023/09/29 07:19:47;;;;;;;7.67;5.20;;;;;;;;;;5013924;28;20601;-54
2023/09/29 07:22:14;;;;;;;6.90;4.97;;;;;;;;;;5013373;28;20198;-54
2023/09/29 07:24:41;;;;;;;6.20;5.30;;;;;;;;;;5013491;28;20207;-54
2023/09/29 07:27:10;;;;;;;5.70;4.80;;;;;;;;;;5013355;28;20202;-54
2023/09/29 07:29:36;;;;;;;5.33;4.80;;;;;;;;;;5013198;28;20226;-54
2023/09/29 07:32:03;;;;;;;7.20;4.90;;;;;;;;;;5013384;28;20233;-54
2023/09/29 07:34:30;;;;;;;5.40;4.50;;;;;;;;;;5013092;28;20201;-54
2023/09/29 07:36:56;;;;;;;5.03;4.07;;;;;;;;;;5013110;28;20221;-54
2023/09/29 07:39:22;;;;;;;7.60;4.40;;;;;;;;;;5012957;28;20351;-54
2023/09/29 07:41:50;;;;;;;4.70;4.27;;;;;;;;;;5013199;28;20574;-54
2023/09/29 07:44:16;;;;;;;4.93;4.43;;;;;;;;;;5012858;28;20229;-54
2023/09/29 07:46:42;;;;;;;4.93;4.37;;;;;;;;;;5013024;28;20198;-54
2023/09/29 07:49:08;;;;;;;5.00;4.03;;;;;;;;;;5012757;28;20207;-54
2023/09/29 07:51:35;;;;;;;5.10;4.07;;;;;;;;;;5012576;28;20251;-54
2023/09/29 07:54:01;;;;;;;5.83;4.17;;;;;;;;;;5012689;28;20198;-55
2023/09/29 07:56:27;;;;;;;4.53;4.10;;;;;;;;;;5012904;28;20206;-59
2023/09/29 07:58:54;;;;;;;5.77;4.20;;;;;;;;;;5012724;28;20680;-60
2023/09/29 08:01:20;;;;;;;5.77;4.30;;;;;;;;;;5012746;28;20726;-56
2023/09/29 08:03:47;;;;;;;8.03;4.10;;;;;;;;;;5013010;28;20229;-55
2023/09/29 08:06:15;;;;;;;7.23;3.93;;;;;;;;;;5012553;28;20656;-54
2023/09/29 08:08:41;;;;;;;4.27;3.80;;;;;;;;;;5012721;28;20216;-55
2023/09/29 08:11:07;;;;;;;6.57;3.80;;;;;;;;;;5012620;28;20204;-55
2023/09/29 08:13:34;;;;;;;5.70;3.80;;;;;;;;;;5012592;28;20563;-55
2023/09/29 08:16:01;;;;;;;4.70;3.77;;;;;;;;;;5012484;28;20226;-55
2023/09/29 08:18:28;;;;;;;4.17;3.70;;;;;;;;;;5012311;28;20581;-55
2023/09/29 08:20:54;;;;;;;4.03;3.63;;;;;;;;;;5012598;28;20190;-55
2023/09/29 08:23:20;;;;;;;6.17;4.20;;;;;;;;;;5012358;28;20588;-55
2023/09/29 08:25:47;;;;;;;5.77;3.50;;;;;;;;;;5012318;28;20765;-55
2023/09/29 08:28:13;;;;;;;4.33;3.93;;;;;;;;;;5012223;28;20187;-55
2023/09/29 08:30:39;;;;;;;5.73;3.87;;;;;;;;;;5012184;28;20199;-55
2023/09/29 08:33:06;;;;;;;5.27;4.03;;;;;;;;;;5012087;28;20211;-54
2023/09/29 08:35:32;;;;;;;5.50;3.60;;;;;;;;;;5012211;28;20262;-56
2023/09/29 08:37:58;;;;;;;4.33;3.80;;;;;;;;;;5011964;28;20266;-55
2023/09/29 08:40:25;;;;;;;4.00;3.33;;;;;;;;;;5011941;28;20199;-55
2023/09/29 08:42:51;;;;;;;3.87;3.43;;;;;;;;;;5011823;28;20235;-55
2023/09/29 08:45:18;;;;;;;5.80;3.50;;;;;;;;;;5012012;28;20670;-55
2023/09/29 08:47:47;;;;;;;4.20;3.30;;;;;;;;;;5005092;28;20223;-57
2023/09/29 08:50:16;;;;;;;5.03;3.30;;;;;;;;;;5011458;28;20215;-57
2023/09/29 08:52:45;;;;;;;4.20;3.37;;;;;;;;;;5011782;28;20520;-55
2023/09/29 08:55:14;;;;;;;3.97;3.40;;;;;;;;;;5011663;28;20663;-55
2023/09/29 08:57:43;;;;;;;3.50;3.20;;;;;;;;;;5011282;28;20242;-55
2023/09/29 09:00:13;;;;;;;4.07;3.30;;;;;;;;;;5011663;28;20217;-55
2023/09/29 09:02:45;;;;;;;4.87;3.20;;;;;;;;;;5010669;28;20201;-55
2023/09/29 09:05:12;;;;;;;6.00;3.07;;;;;;;;;;5011712;28;20203;-55
2023/09/29 09:07:40;;;;;;;3.23;2.70;;;;;;;;;;5011603;28;20201;-54
2023/09/29 09:10:06;;;;;;;5.93;3.70;;;;;;;;;;5011113;28;20251;-55
2023/09/29 09:12:33;;;;;;;4.20;3.00;;;;;;;;;;5011354;28;20252;-55
2023/09/29 09:14:59;;;;;;;3.43;2.90;;;;;;;;;;5011718;28;20256;-55
2023/09/29 09:17:25;;;;;;;4.77;3.03;;;;;;;;;;5011262;28;20284;-55
2023/09/29 09:19:51;;;;;;;2.93;2.63;;;;;;;;;;5011542;28;20288;-55
2023/09/29 09:22:18;;;;;;;5.03;2.80;;;;;;;;;;5011093;28;20742;-56
2023/09/29 09:24:46;;;;;;;3.87;2.97;;;;;;;;;;5011443;28;20271;-56
2023/09/29 09:27:13;;;;;;;6.47;3.13;;;;;;;;;;5011295;28;20216;-55
2023/09/29 09:29:40;;;;;;;3.43;2.43;;;;;;;;;;5011243;28;20293;-56
2023/09/29 09:32:06;;;;;;;5.43;2.87;;;;;;;;;;5011437;28;20245;-55
2023/09/29 09:34:33;;;;;;;3.67;2.67;;;;;;;;;;5011105;28;20224;-56
2023/09/29 09:36:59;;;;;;;5.07;2.70;;;;;;;;;;5011187;28;20235;-56
2023/09/29 09:39:25;;;;;;;3.93;2.93;;;;;;;;;;5009000;28;20265;-54
2023/09/29 09:41:54;;;;;;;3.43;2.60;;;;;;;;;;5009087;28;20194;-55
2023/09/29 09:44:20;;;;;;;5.20;2.60;;;;;;;;;;5011073;28;20316;-55
2023/09/29 09:46:53;;;;;;;4.27;2.70;;;;;;;;;;5011582;28;20537;-55
2023/09/29 09:49:22;;;;;;;3.07;2.43;;;;;;;;;;5011366;28;20616;-55
2023/09/29 09:51:49;;;;;;;3.17;2.70;;;;;;;;;;5011666;28;20606;-56
2023/09/29 09:54:19;;;;;;;3.27;2.60;;;;;;;;;;5009369;28;20603;-56
2023/09/29 09:56:50;;;;;;;5.37;2.70;;;;;;;;;;5011113;28;20252;-56
2023/09/29 09:59:19;;;;;;;4.20;2.60;;;;;;;;;;5011248;28;20205;-56
2023/09/29 10:01:49;;;;;;;4.53;2.50;;;;;;;;;;5011226;28;20261;-56
2023/09/29 10:04:15;;;;;;;3.13;2.30;;;;;;;;;;5011134;28;20229;-56
2023/09/29 10:06:45;;;;;;;3.90;2.70;;;;;;;;;;5010915;28;20205;-56
2023/09/29 10:09:11;;;;;;;3.50;2.60;;;;;;;;;;5010901;28;20198;-56
2023/09/29 10:11:40;;;;;;;7.77;2.80;;;;;;;;;;5010857;28;20197;-56
2023/09/29 10:14:07;;;;;;;3.20;2.80;;;;;;;;;;5013422;28;20219;-56
2023/09/29 10:16:35;;;;;;;3.47;2.40;;;;;;;;;;5014750;28;20201;-56
2023/09/29 10:19:05;;;;;;;3.07;2.33;;;;;;;;;;5014737;28;20329;-56
2023/09/29 10:21:40;;;;;;;4.73;2.60;;;;;;;;;;5014521;28;20193;-56
2023/09/29 10:24:08;;;;;;;2.80;2.30;;;;;;;;;;5014502;28;20308;-56
2023/09/29 10:26:42;;;;;;;3.93;2.40;;;;;;;;;;5014390;28;20280;-56
2023/09/29 10:29:08;;;;;;;3.47;2.50;;;;;;;;;;5014508;28;20206;-56
2023/09/29 10:31:36;;;;;;;6.03;2.60;;;;;;;;;;5014345;28;20203;-56
2023/09/29 10:34:02;;;;;;;2.77;2.57;;;;;;;;;;5014478;28;20569;-56
2023/09/29 10:36:29;;;;;;;2.93;2.40;;;;;;;;;;5014118;28;20222;-56
2023/09/29 10:39:00;;;;;;;3.20;2.57;;;;;;;;;;5014014;28;20243;-56
2023/09/29 10:41:28;;;;;;;3.87;2.40;;;;;;;;;;5013976;28;20279;-56
2023/09/29 10:43:58;;;;;;;4.93;2.40;;;;;;;;;;5013891;28;20668;-56
2023/09/29 10:46:25;;;;;;;2.57;2.37;;;;;;;;;;5013783;28;20279;-56
2023/09/29 10:48:54;;;;;;;3.13;2.00;;;;;;;;;;5013975;28;20569;-56
2023/09/29 10:51:24;;;;;;;2.27;2.07;;;;;;;;;;5013983;28;20269;-56
2023/09/29 10:53:50;;;;;;;3.93;2.20;;;;;;;;;;5014021;28;20219;-56
2023/09/29 10:56:19;;;;;;;2.43;2.23;;;;;;;;;;5008603;28;20194;-56
2023/09/29 10:58:46;;;;;;;4.67;2.40;;;;;;;;;;5014254;28;20234;-56
2023/09/29 11:01:12;;;;;;;4.30;2.50;;;;;;;;;;5014120;28;20210;-55
2023/09/29 11:03:38;;;;;;;3.77;2.40;;;;;;;;;;5013865;28;20225;-56
2023/09/29 11:06:15;;;;;;;4.43;2.03;;;;;;;;;;5014171;28;20198;-56
2023/09/29 11:08:44;;;;;;;3.77;2.40;;;;;;;;;;5013586;28;20674;-56
2023/09/29 11:11:11;;;;;;;6.10;2.10;;;;;;;;;;5013970;28;20238;-55
2023/09/29 11:13:40;;;;;;;3.70;2.17;;;;;;;;;;5013777;28;20202;-55
2023/09/29 11:16:15;;;;;;;3.60;2.60;;;;;;;;;;5014007;28;20209;-55
2023/09/29 11:18:47;;;;;;;4.17;2.63;;;;;;;;;;5013754;28;20202;-55
2023/09/29 11:21:14;;;;;;;4.50;2.27;;;;;;;;;;5013517;28;20216;-56
2023/09/29 11:23:44;;;;;;;4.47;2.60;;;;;;;;;;5013688;28;20317;-56
2023/09/29 11:26:10;;;;;;;2.93;2.53;;;;;;;;;;5012671;28;20380;-55
2023/09/29 11:28:41;;;;;;;5.40;2.30;;;;;;;;;;5013299;28;20205;-56
2023/09/29 11:31:07;;;;;;;3.73;2.63;;;;;;;;;;5013778;28;20273;-56
2023/09/29 11:33:33;;;;;;;5.13;2.60;;;;;;;;;;5013585;28;20734;-56
2023/09/29 11:35:59;;;;;;;2.90;2.57;;;;;;;;;;5013206;28;20227;-55
2023/09/29 11:38:26;;;;;;;6.03;2.23;;;;;;;;;;5013236;28;20717;-56
2023/09/29 11:40:52;;;;;;;4.53;2.50;;;;;;;;;;5013355;28;20215;-56
2023/09/29 11:43:18;;;;;;;5.10;2.60;;;;;;;;;;5013308;28;20688;-56
2023/09/29 11:45:45;;;;;;;5.70;2.80;;;;;;;;;;5013105;28;20204;-56
2023/09/29 11:48:11;;;;;;;2.83;2.40;;;;;;;;;;5012198;28;20663;-57
2023/09/29 11:50:38;;;;;;;4.10;2.50;;;;;;;;;;5012748;28;20201;-56
2023/09/29 11:53:06;;;;;;;3.97;2.67;;;;;;;;;;5013295;28;20211;-57
2023/09/29 11:55:33;;;;;;;3.47;2.60;;;;;;;;;;5013134;28;20201;-57
2023/09/29 11:58:00;;;;;;;6.23;2.60;;;;;;;;;;5012929;28;20782;-57
2023/09/29 12:00:25;;;;;;;4.43;2.63;;;;;;;;;;5012937;28;20966;-57
2023/09/29 12:02:53;;;;;;;6.00;2.63;;;;;;;;;;5013044;28;20259;-57
2023/09/29 12:05:19;;;;;;;3.13;2.23;;;;;;;;;;5012842;28;20225;-57
2023/09/29 12:07:45;;;;;;;4.33;2.30;;;;;;;;;;5013218;28;20198;-57
2023/09/29 12:10:13;;;;;;;3.47;2.13;;;;;;;;;;5012797;28;20198;-57
2023/09/29 12:12:40;;;;;;;4.87;2.40;;;;;;;;;;5012553;28;20217;-57
2023/09/29 12:15:08;;;;;;;2.83;2.20;;;;;;;;;;5012772;28;20202;-57
2023/09/29 12:17:34;;;;;;;3.63;2.60;;;;;;;;;;5012829;28;20206;-57
2023/09/29 12:20:00;;;;;;;3.03;2.23;;;;;;;;;;5012658;28;20690;-57
2023/09/29 12:22:30;;;;;;;6.23;2.43;;;;;;;;;;5012618;28;20251;-57
2023/09/29 12:24:57;;;;;;;5.10;2.50;;;;;;;;;;5012469;28;20578;-57
2023/09/29 12:27:23;;;;;;;4.27;2.60;;;;;;;;;;5012369;28;20205;-57
2023/09/29 12:29:51;;;;;;;3.30;2.60;;;;;;;;;;5012688;28;20203;-57
2023/09/29 12:32:17;;;;;;;4.27;2.70;;;;;;;;;;5012580;28;20212;-57
2023/09/29 12:34:43;;;;;;;3.70;2.60;;;;;;;;;;5012240;28;20567;-57
2023/09/29 12:37:09;;;;;;;4.50;2.50;;;;;;;;;;5012211;28;20207;-57
2023/09/29 12:39:39;;;;;;;3.87;2.63;;;;;;;;;;5012174;28;20234;-57
2023/09/29 12:42:05;;;;;;;5.47;2.73;;;;;;;;;;5012231;28;20726;-57
2023/09/29 12:44:31;;;;;;;3.70;2.73;;;;;;;;;;5012214;28;20612;-57
2023/09/29 12:46:58;;;;;;;4.10;2.70;;;;;;;;;;5012214;28;20207;-57
2023/09/29 12:49:24;;;;;;;5.33;2.60;;;;;;;;;;5012228;28;20303;-57
2023/09/29 12:51:50;;;;;;;4.50;2.47;;;;;;;;;;5012200;28;20257;-57
2023/09/29 12:54:16;;;;;;;5.53;3.17;;;;;;;;;;5012150;28;20199;-57
2023/09/29 12:56:43;;;;;;;6.63;2.80;;;;;;;;;;5012067;28;20198;-57
2023/09/29 12:59:09;;;;;;;6.73;3.00;;;;;;;;;;5011970;28;20223;-57
2023/09/29 13:01:35;;;;;;;5.93;2.63;;;;;;;;;;5011999;28;20681;-57
2023/09/29 13:04:02;;;;;;;6.00;2.60;;;;;;;;;;5011930;28;20710;-57
2023/09/29 13:06:28;;;;;;;4.50;2.57;;;;;;;;;;5011731;28;20285;-57
2023/09/29 13:08:54;;;;;;;6.60;2.50;;;;;;;;;;5011888;28;20298;-57
2023/09/29 13:11:20;;;;;;;6.57;2.40;;;;;;;;;;5011845;28;20271;-57
2023/09/29 13:13:46;;;;;;;5.73;2.90;;;;;;;;;;5011925;28;20262;-57
2023/09/29 13:16:13;;;;;;;5.33;2.60;;;;;;;;;;5011866;28;20231;-57
2023/09/29 13:18:40;;;;;;;4.77;2.70;;;;;;;;;;5011615;28;20234;-57
2023/09/29 13:21:08;;;;;;;4.50;2.57;;;;;;;;;;5011940;28;20209;-57
2023/09/29 13:23:34;;;;;;;5.70;2.70;;;;;;;;;;5011853;28;20323;-57
2023/09/29 13:26:00;;;;;;;5.43;3.00;;;;;;;;;;5011801;28;20203;-57
2023/09/29 13:28:26;;;;;;;4.93;2.90;;;;;;;;;;5011567;28;20609;-56
2023/09/29 13:30:54;;;;;;;4.67;2.90;;;;;;;;;;5011694;28;20210;-57
2023/09/29 13:33:24;;;;;;;4.33;2.50;;;;;;;;;;5011695;28;20678;-56
2023/09/29 13:35:50;;;;;;;10.43;5.90;;;;;;;;;;5011764;28;20724;-57
2023/09/29 13:38:17;;;;;;;5.23;2.83;;;;;;;;;;5011583;28;20238;-56
2023/09/29 13:40:43;;;;;;;4.20;2.80;;;;;;;;;;5011620;28;20217;-57
2023/09/29 13:43:09;;;;;;;4.07;2.67;;;;;;;;;;5011515;28;20218;-57
2023/09/29 13:45:36;;;;;;;6.63;4.40;;;;;;;;;;5011471;28;20278;-56
2023/09/29 13:48:02;;;;;;;4.50;3.30;;;;;;;;;;5012205;28;20824;-57
2023/09/29 13:50:29;;;;;;;4.10;2.73;;;;;;;;;;5015204;28;20695;-56
2023/09/29 13:52:55;;;;;;;7.40;3.67;;;;;;;;;;5015391;28;20276;-57
2023/09/29 13:55:22;;;;;;;3.80;2.57;;;;;;;;;;5015393;28;20210;-56
2023/09/29 13:57:48;;;;;;;9.20;3.83;;;;;;;;;;5015138;28;20665;-56
2023/09/29 14:00:18;;;;;;;7.17;3.90;;;;;;;;;;5015137;28;20204;-56
2023/09/29 14:02:44;;;;;;;5.60;4.43;;;;;;;;;;5014555;28;20199;-57
2023/09/29 14:05:11;;;;;;;5.37;3.40;;;;;;;;;;5015007;28;20277;-56
2023/09/29 14:07:37;;;;;;;3.57;3.27;;;;;;;;;;5015045;28;20195;-57
2023/09/29 14:10:03;;;;;;;7.63;4.23;;;;;;;;;;5015205;28;20212;-57
2023/09/29 14:12:36;;;;;;;6.10;4.47;;;;;;;;;;5014708;28;20295;-57
2023/09/29 14:15:02;;;;;;;10.97;6.50;;;;;;;;;;5015092;28;20247;-57
2023/09/29 14:17:28;;;;;;;10.20;7.30;;;;;;;;;;5014808;28;20204;-57
2023/09/29 14:19:54;;;;;;;5.00;3.60;;;;;;;;;;5014836;28;20730;-57
2023/09/29 14:22:20;;;;;;;10.60;7.57;;;;;;;;;;5014769;28;20554;-56
2023/09/29 14:24:46;;;;;;;5.63;3.60;;;;;;;;;;5014529;28;20236;-57
2023/09/29 14:27:12;;;;;;;6.27;3.70;;;;;;;;;;5014553;28;20191;-57
2023/09/29 14:29:39;;;;;;;6.17;4.20;;;;;;;;;;5014467;28;20218;-57
2023/09/29 14:32:05;;;;;;;6.40;3.73;;;;;;;;;;5014574;28;20649;-57
2023/09/29 14:34:31;;;;;;;10.27;4.53;;;;;;;;;;5014195;28;20594;-57